Time;durP1;ratioP1;P1;durP2;ratioP2;P2;SDS_P1;SDS_P2;PMS_P1;PMS_P2;Temp;Humidity;BMP_temperature;BMP_pressure;BME280_temperature;BME280_humidity;BME280_pressure;Samples;Min_cycle;Max_cycle;Signal;HPM_P1;HPM_P2
2023/07/16 00:00:42;;;;;;;8.60;3.13;;;15.80;99.90;;;;;;6244614;23;20025;-66
2023/07/16 00:03:09;;;;;;;8.20;2.42;;;15.80;99.90;;;;;;6244493;23;20028;-67
2023/07/16 00:05:38;;;;;;;9.10;3.05;;;15.70;99.90;;;;;;6244816;23;20028;-66
2023/07/16 00:08:05;;;;;;;6.95;3.08;;;15.70;99.90;;;;;;6244911;23;20127;-66
2023/07/16 00:10:35;;;;;;;8.77;2.80;;;15.70;99.90;;;;;;6244226;23;20024;-64
2023/07/16 00:13:02;;;;;;;7.18;2.75;;;15.70;99.90;;;;;;6244966;23;20027;-64
2023/07/16 00:15:31;;;;;;;8.45;3.10;;;15.70;99.90;;;;;;6246483;22;20496;-64
2023/07/16 00:17:58;;;;;;;7.20;2.78;;;15.70;99.90;;;;;;6246102;23;20458;-64
2023/07/16 00:20:24;;;;;;;8.93;3.38;;;15.70;99.90;;;;;;6246584;23;20465;-64
2023/07/16 00:22:52;;;;;;;10.90;3.47;;;15.80;99.90;;;;;;6244688;23;20039;-64
2023/07/16 00:25:19;;;;;;;7.95;3.08;;;15.80;99.90;;;;;;6245868;23;20027;-65
2023/07/16 00:27:45;;;;;;;8.23;3.08;;;15.80;99.90;;;;;;6244708;23;20028;-64
2023/07/16 00:30:13;;;;;;;8.52;2.58;;;15.80;99.90;;;;;;6243793;23;20086;-63
2023/07/16 00:32:41;;;;;;;12.07;3.65;;;15.80;99.90;;;;;;6246492;23;20031;-63
2023/07/16 00:35:09;;;;;;;5.25;2.92;;;15.80;99.90;;;;;;6245018;23;20024;-63
2023/07/16 00:37:36;;;;;;;9.25;3.35;;;15.70;99.90;;;;;;6244040;23;20031;-63
2023/07/16 00:40:03;;;;;;;12.20;2.78;;;15.70;99.90;;;;;;6246433;23;20354;-63
2023/07/16 00:42:30;;;;;;;13.48;3.78;;;15.70;99.90;;;;;;6246082;23;20024;-63
2023/07/16 00:44:58;;;;;;;9.20;3.60;;;15.70;99.90;;;;;;6245415;22;20028;-65
2023/07/16 00:47:25;;;;;;;8.13;3.55;;;15.70;99.90;;;;;;6246328;23;20020;-65
2023/07/16 00:49:54;;;;;;;10.02;3.05;;;15.60;99.90;;;;;;6243810;23;20035;-65
2023/07/16 00:52:23;;;;;;;8.80;2.88;;;15.70;99.90;;;;;;6245777;23;20020;-65
2023/07/16 00:54:50;;;;;;;10.25;3.63;;;15.70;99.90;;;;;;6244007;23;20028;-65
2023/07/16 00:57:17;;;;;;;9.70;2.47;;;15.70;99.90;;;;;;6246079;23;20027;-65
2023/07/16 00:59:44;;;;;;;8.10;3.35;;;15.60;99.90;;;;;;6243748;23;20046;-65
2023/07/16 01:02:11;;;;;;;10.73;3.10;;;15.60;99.90;;;;;;6244240;23;20023;-66
2023/07/16 01:04:38;;;;;;;12.05;3.22;;;15.70;99.90;;;;;;6244324;23;20024;-66
2023/07/16 01:07:10;;;;;;;11.13;3.00;;;15.70;99.90;;;;;;6245720;22;20028;-65
2023/07/16 01:09:39;;;;;;;10.93;4.10;;;15.70;99.90;;;;;;6246108;23;20024;-65
2023/07/16 01:12:07;;;;;;;10.30;3.40;;;15.80;99.90;;;;;;6245856;23;20028;-65
2023/07/16 01:14:35;;;;;;;12.57;3.17;;;15.90;99.90;;;;;;6245079;23;20020;-65
2023/07/16 01:17:04;;;;;;;10.48;4.20;;;15.90;99.90;;;;;;6246225;22;20024;-65
2023/07/16 01:19:31;;;;;;;10.82;3.72;;;16.00;99.90;;;;;;6243303;23;20027;-65
2023/07/16 01:22:12;;;;;;;12.50;3.85;;;16.10;99.90;;;;;;6244194;23;20016;-66
2023/07/16 01:25:05;;;;;;;12.32;4.07;;;16.10;99.90;;;;;;6244321;23;20050;-66
2023/07/16 01:27:59;;;;;;;10.13;3.78;;;16.10;99.90;;;;;;6235672;23;20074;-66
2023/07/16 01:30:28;;;;;;;17.40;3.13;;;16.20;99.90;;;;;;6245591;23;20012;-66
2023/07/16 01:32:57;;;;;;;9.02;3.40;;;16.20;99.90;;;;;;6244116;23;20546;-66
2023/07/16 01:35:24;;;;;;;11.73;3.85;;;16.20;99.90;;;;;;6245005;23;20332;-66
2023/07/16 01:37:51;;;;;;;9.73;3.53;;;16.20;99.90;;;;;;6244213;23;20028;-66
2023/07/16 01:40:18;;;;;;;10.65;3.55;;;16.20;99.90;;;;;;6245409;23;20531;-66
2023/07/16 01:42:45;;;;;;;11.02;3.13;;;16.20;99.90;;;;;;6244764;22;20020;-66
2023/07/16 01:45:12;;;;;;;8.90;2.95;;;16.20;99.90;;;;;;6243612;23;20457;-66
2023/07/16 01:47:55;;;;;;;6.68;2.63;;;16.20;99.90;;;;;;6243420;23;20082;-66
2023/07/16 01:50:22;;;;;;;9.48;3.00;;;16.20;99.90;;;;;;6245247;23;20078;-66
2023/07/16 01:52:49;;;;;;;9.20;3.08;;;16.10;99.90;;;;;;6245506;23;20477;-66
2023/07/16 01:55:16;;;;;;;7.10;3.20;;;16.10;99.90;;;;;;6244748;23;20024;-66
2023/07/16 01:57:43;;;;;;;7.03;2.58;;;16.20;99.90;;;;;;6245738;22;20020;-66
2023/07/16 02:00:11;;;;;;;11.70;3.40;;;16.10;99.90;;;;;;6243672;23;20035;-66
2023/07/16 02:02:38;;;;;;;7.85;2.80;;;16.10;99.90;;;;;;6242839;23;20389;-67
2023/07/16 02:05:07;;;;;;;5.60;2.95;;;16.20;99.90;;;;;;6243835;23;20093;-64
2023/07/16 02:07:34;;;;;;;10.85;3.33;;;16.70;99.90;;;;;;6243827;23;20095;-66
2023/07/16 02:10:02;;;;;;;9.65;2.85;;;16.10;99.90;;;;;;6243042;23;20024;-66
2023/07/16 02:12:29;;;;;;;12.57;3.38;;;16.10;99.90;;;;;;6243736;23;20042;-66
2023/07/16 02:14:56;;;;;;;9.88;2.80;;;16.20;99.90;;;;;;6243661;23;20024;-65
2023/07/16 02:17:23;;;;;;;6.40;2.88;;;16.20;99.90;;;;;;6242861;23;20028;-67
2023/07/16 02:19:49;;;;;;;9.70;2.75;;;16.20;99.90;;;;;;6243645;23;20032;-65
2023/07/16 02:22:18;;;;;;;6.78;2.70;;;16.20;99.90;;;;;;6245487;23;20338;-66
2023/07/16 02:24:45;;;;;;;12.82;3.20;;;16.20;99.90;;;;;;6242947;23;20031;-66
2023/07/16 02:27:12;;;;;;;8.98;2.78;;;16.20;99.90;;;;;;6243490;23;20020;-67
2023/07/16 02:29:39;;;;;;;9.82;2.72;;;16.20;99.90;;;;;;6245463;23;20024;-66
2023/07/16 02:32:06;;;;;;;9.82;3.33;;;16.20;99.90;;;;;;6242551;23;20066;-66
2023/07/16 02:34:33;;;;;;;9.20;3.58;;;16.20;99.90;;;;;;6244797;23;20451;-66
2023/07/16 02:37:00;;;;;;;6.93;3.00;;;16.20;99.90;;;;;;6244861;23;20077;-67
2023/07/16 02:39:28;;;;;;;7.25;3.10;;;16.20;99.90;;;;;;6243526;23;20020;-67
2023/07/16 02:41:55;;;;;;;8.80;3.75;;;16.30;99.90;;;;;;6243197;23;20031;-66
2023/07/16 02:44:22;;;;;;;15.75;3.83;;;16.30;99.90;;;;;;6242914;23;20442;-67
2023/07/16 02:46:49;;;;;;;7.18;3.03;;;16.30;99.90;;;;;;6244972;23;20026;-65
2023/07/16 02:49:16;;;;;;;9.80;3.33;;;16.40;99.90;;;;;;6243356;23;20024;-65
2023/07/16 02:51:43;;;;;;;10.57;3.65;;;16.30;99.90;;;;;;6244432;23;20020;-65
2023/07/16 02:54:10;;;;;;;10.75;3.60;;;16.30;99.90;;;;;;6243446;23;20252;-65
2023/07/16 02:56:38;;;;;;;9.10;3.20;;;16.30;99.90;;;;;;6243104;23;20096;-63
2023/07/16 02:59:05;;;;;;;13.65;4.32;;;16.30;99.90;;;;;;6242956;23;20046;-62
2023/07/16 03:01:32;;;;;;;8.93;3.45;;;16.20;99.90;;;;;;6245193;23;20024;-62
2023/07/16 03:03:59;;;;;;;12.38;4.28;;;16.30;99.90;;;;;;6245021;23;20050;-63
2023/07/16 03:06:26;;;;;;;10.07;3.53;;;16.30;99.90;;;;;;6244454;23;20070;-61
2023/07/16 03:08:52;;;;;;;12.38;3.63;;;16.30;99.90;;;;;;6244655;23;20024;-61
2023/07/16 03:11:19;;;;;;;8.55;3.35;;;16.30;99.90;;;;;;6242961;23;20469;-61
2023/07/16 03:13:48;;;;;;;9.48;3.97;;;16.20;99.90;;;;;;6243707;23;20038;-61
2023/07/16 03:16:14;;;;;;;11.68;3.63;;;16.20;99.90;;;;;;6247160;22;20319;-61
2023/07/16 03:18:41;;;;;;;9.50;3.25;;;16.20;99.90;;;;;;6246633;23;20020;-61
2023/07/16 03:21:08;;;;;;;8.43;3.13;;;16.20;99.90;;;;;;6246049;23;20020;-61
2023/07/16 03:23:35;;;;;;;10.38;3.47;;;16.20;99.90;;;;;;6246840;23;20074;-61
2023/07/16 03:26:02;;;;;;;11.32;3.47;;;16.10;99.90;;;;;;6246043;23;20024;-61
2023/07/16 03:28:29;;;;;;;14.88;4.13;;;16.10;99.90;;;;;;6246815;22;20446;-61
2023/07/16 03:30:57;;;;;;;8.45;3.72;;;16.10;99.90;;;;;;6246624;23;20039;-61
2023/07/16 03:33:24;;;;;;;8.82;3.80;;;16.20;99.90;;;;;;6246353;23;20024;-61
2023/07/16 03:35:51;;;;;;;10.90;4.18;;;16.10;99.90;;;;;;6246593;23;20028;-61
2023/07/16 03:38:18;;;;;;;10.32;3.50;;;16.10;99.90;;;;;;6247295;23;20020;-61
2023/07/16 03:40:48;;;;;;;9.40;3.78;;;16.10;99.90;;;;;;6244287;23;20028;-61
2023/07/16 03:43:15;;;;;;;11.00;3.75;;;16.00;99.90;;;;;;6245060;23;20074;-62
2023/07/16 03:45:42;;;;;;;11.60;4.05;;;16.00;99.90;;;;;;6244942;23;20035;-61
2023/07/16 03:48:10;;;;;;;12.63;3.88;;;16.00;99.90;;;;;;6244735;23;20070;-61
2023/07/16 03:50:37;;;;;;;6.20;3.95;;;16.10;99.90;;;;;;6246856;23;20035;-62
2023/07/16 03:53:04;;;;;;;9.80;3.80;;;16.00;99.90;;;;;;6246524;23;20016;-60
2023/07/16 03:55:31;;;;;;;8.60;3.30;;;16.10;99.90;;;;;;6246240;23;20086;-66
2023/07/16 03:57:58;;;;;;;9.43;4.05;;;16.10;99.90;;;;;;6245200;23;20397;-66
2023/07/16 04:00:25;;;;;;;10.30;4.40;;;16.10;99.90;;;;;;6244943;23;20028;-65
2023/07/16 04:02:52;;;;;;;12.98;4.53;;;16.10;99.90;;;;;;6245972;23;20035;-62
2023/07/16 04:05:20;;;;;;;9.50;4.70;;;16.10;99.90;;;;;;6246908;23;20027;-62
2023/07/16 04:07:47;;;;;;;9.73;4.05;;;16.10;99.90;;;;;;6244926;23;20024;-65
2023/07/16 04:10:14;;;;;;;7.53;4.00;;;16.10;99.90;;;;;;6244440;23;20067;-65
2023/07/16 04:12:41;;;;;;;11.75;4.43;;;16.10;99.90;;;;;;6244755;23;20021;-64
2023/07/16 04:15:10;;;;;;;9.48;4.35;;;16.20;99.90;;;;;;6244925;23;20028;-62
2023/07/16 04:17:37;;;;;;;9.30;4.57;;;16.20;99.90;;;;;;6244990;23;20353;-62
2023/07/16 04:20:06;;;;;;;10.73;3.85;;;16.30;99.90;;;;;;6244882;23;20466;-64
2023/07/16 04:22:35;;;;;;;11.45;4.47;;;16.30;99.90;;;;;;6246009;23;20533;-65
2023/07/16 04:25:02;;;;;;;9.45;4.47;;;16.30;99.90;;;;;;6244242;23;20027;-66
2023/07/16 04:27:30;;;;;;;9.23;4.45;;;16.30;99.90;;;;;;6244538;23;20020;-64
2023/07/16 04:29:57;;;;;;;9.05;4.40;;;16.30;99.90;;;;;;6245591;23;20082;-65
2023/07/16 04:32:24;;;;;;;13.70;5.38;;;16.40;99.90;;;;;;6246495;23;20020;-65
2023/07/16 04:34:51;;;;;;;9.25;4.00;;;16.40;99.90;;;;;;6246470;23;20028;-64
2023/07/16 04:37:18;;;;;;;10.48;5.18;;;16.40;99.90;;;;;;6244048;23;20032;-63
2023/07/16 04:39:46;;;;;;;10.95;4.80;;;16.40;99.90;;;;;;6246436;23;20323;-64
2023/07/16 04:42:13;;;;;;;10.20;4.70;;;16.40;99.90;;;;;;6244265;23;20020;-64
2023/07/16 04:44:40;;;;;;;7.72;4.22;;;16.40;99.90;;;;;;6243744;23;20059;-65
2023/07/16 04:47:07;;;;;;;10.30;4.78;;;16.40;99.90;;;;;;6246419;23;20028;-65
2023/07/16 04:49:36;;;;;;;11.55;4.70;;;16.50;99.90;;;;;;6244571;23;20024;-65
2023/07/16 04:52:03;;;;;;;10.05;4.90;;;16.50;99.90;;;;;;6243756;23;20393;-65
2023/07/16 04:54:35;;;;;;;11.00;4.68;;;16.60;99.90;;;;;;6244439;23;20024;-65
2023/07/16 04:57:03;;;;;;;12.40;5.10;;;16.70;99.90;;;;;;6246491;23;20020;-65
2023/07/16 04:59:30;;;;;;;12.93;5.15;;;16.80;99.90;;;;;;6245581;23;20021;-64
2023/07/16 05:01:57;;;;;;;13.25;5.13;;;16.90;99.90;;;;;;6246077;23;20070;-65
2023/07/16 05:04:24;;;;;;;12.98;5.20;;;16.90;99.90;;;;;;6243882;23;20028;-65
2023/07/16 05:06:53;;;;;;;9.65;4.70;;;17.00;99.90;;;;;;6244269;23;20050;-65
2023/07/16 05:09:20;;;;;;;10.98;4.90;;;17.10;99.90;;;;;;6246208;23;20104;-66
2023/07/16 05:11:47;;;;;;;14.20;5.90;;;17.20;99.90;;;;;;6243500;23;20071;-65
2023/07/16 05:14:15;;;;;;;10.07;4.75;;;17.30;99.90;;;;;;6246163;23;20056;-68
2023/07/16 05:16:42;;;;;;;16.42;5.68;;;17.40;99.90;;;;;;6245850;23;20020;-65
2023/07/16 05:19:09;;;;;;;16.50;5.40;;;17.50;99.90;;;;;;6245483;23;20024;-65
2023/07/16 05:21:36;;;;;;;7.65;4.25;;;17.50;99.90;;;;;;6245827;23;20343;-65
2023/07/16 05:24:03;;;;;;;12.10;4.97;;;17.40;99.90;;;;;;6246171;23;20023;-65
2023/07/16 05:26:30;;;;;;;14.82;5.28;;;17.50;99.90;;;;;;6245246;23;20028;-66
2023/07/16 05:28:57;;;;;;;11.63;4.97;;;17.60;99.90;;;;;;6245816;23;20020;-65
2023/07/16 05:31:25;;;;;;;15.23;4.90;;;17.70;99.90;;;;;;6244014;23;20035;-65
2023/07/16 05:33:52;;;;;;;16.98;5.45;;;17.80;99.90;;;;;;6243269;23;20032;-65
2023/07/16 05:36:19;;;;;;;11.98;4.63;;;18.00;99.90;;;;;;6243920;23;20031;-65
2023/07/16 05:38:46;;;;;;;12.30;4.97;;;18.10;99.90;;;;;;6245772;23;20039;-65
2023/07/16 05:41:13;;;;;;;9.35;4.75;;;18.10;99.90;;;;;;6243296;23;20074;-65
2023/07/16 05:43:40;;;;;;;10.10;4.40;;;18.10;99.90;;;;;;6243888;23;20029;-64
2023/07/16 05:46:07;;;;;;;7.60;4.28;;;18.00;99.90;;;;;;6245837;23;20024;-64
2023/07/16 05:48:35;;;;;;;12.75;4.13;;;18.00;99.90;;;;;;6243123;23;20024;-64
2023/07/16 05:51:02;;;;;;;10.57;4.03;;;18.20;99.90;;;;;;6244023;23;20024;-66
2023/07/16 05:53:29;;;;;;;13.13;4.38;;;18.20;99.90;;;;;;6243744;23;20016;-65
2023/07/16 05:55:56;;;;;;;10.70;4.45;;;18.30;99.90;;;;;;6245240;23;20027;-64
2023/07/16 05:58:23;;;;;;;11.60;4.68;;;18.40;99.90;;;;;;6243854;23;20084;-63
2023/07/16 06:00:49;;;;;;;11.27;3.83;;;18.40;99.90;;;;;;6244827;23;20024;-62
2023/07/16 06:03:18;;;;;;;10.57;4.57;;;18.50;99.90;;;;;;6245517;23;20026;-64
2023/07/16 06:05:46;;;;;;;9.82;3.90;;;18.60;99.90;;;;;;6245587;23;20352;-63
2023/07/16 06:08:13;;;;;;;10.00;4.07;;;18.70;99.90;;;;;;6244907;23;20020;-63
2023/07/16 06:10:40;;;;;;;7.55;3.47;;;18.70;99.90;;;;;;6243727;23;20422;-62
2023/07/16 06:13:07;;;;;;;7.85;4.13;;;18.70;99.90;;;;;;6245495;23;20070;-62
2023/07/16 06:15:34;;;;;;;7.97;3.50;;;18.60;99.90;;;;;;6244433;23;20020;-62
2023/07/16 06:18:01;;;;;;;7.93;4.10;;;18.50;99.90;;;;;;6245528;23;20028;-62
2023/07/16 06:20:29;;;;;;;12.30;4.47;;;18.60;99.90;;;;;;6245328;23;20023;-62
2023/07/16 06:22:57;;;;;;;7.05;3.28;;;18.80;99.90;;;;;;6244475;23;20047;-62
2023/07/16 06:25:24;;;;;;;9.60;4.07;;;18.90;99.90;;;;;;6245520;23;20030;-62
2023/07/16 06:27:51;;;;;;;15.27;4.03;;;18.90;99.90;;;;;;6243534;23;20031;-62
2023/07/16 06:30:18;;;;;;;12.27;4.35;;;18.90;99.90;;;;;;6240435;23;20059;-62
2023/07/16 06:32:45;;;;;;;10.73;4.00;;;18.80;99.90;;;;;;6242127;23;20024;-62
2023/07/16 06:35:12;;;;;;;13.25;3.85;;;18.80;99.90;;;;;;6244176;23;20024;-63
2023/07/16 06:37:39;;;;;;;10.10;4.20;;;18.70;99.90;;;;;;6241365;23;20031;-63
2023/07/16 06:40:08;;;;;;;8.35;4.18;;;18.70;99.90;;;;;;6242669;23;20027;-63
2023/07/16 06:42:35;;;;;;;10.33;4.07;;;18.70;99.90;;;;;;6242179;23;20027;-63
2023/07/16 06:45:02;;;;;;;10.55;4.25;;;18.80;99.90;;;;;;6241867;23;20255;-63
2023/07/16 06:47:29;;;;;;;10.70;3.92;;;18.80;99.90;;;;;;6241656;23;20020;-63
2023/07/16 06:49:56;;;;;;;12.60;4.25;;;18.90;99.90;;;;;;6244417;23;20027;-63
2023/07/16 06:52:24;;;;;;;9.63;4.47;;;19.10;99.90;;;;;;6242021;23;20024;-63
2023/07/16 06:54:51;;;;;;;10.95;4.82;;;19.30;99.90;;;;;;6242442;23;20421;-63
2023/07/16 06:57:19;;;;;;;12.05;4.53;;;19.10;99.90;;;;;;6242872;23;20480;-62
2023/07/16 06:59:46;;;;;;;12.55;4.43;;;19.00;99.90;;;;;;6244483;23;20024;-62
2023/07/16 07:02:13;;;;;;;8.60;4.47;;;18.90;99.90;;;;;;6244234;23;20070;-62
2023/07/16 07:04:40;;;;;;;10.23;4.55;;;18.90;99.90;;;;;;6243345;23;20020;-62
2023/07/16 07:07:07;;;;;;;12.07;4.30;;;18.90;99.90;;;;;;6243883;23;20027;-62
2023/07/16 07:09:34;;;;;;;10.75;4.15;;;19.10;99.90;;;;;;6242314;23;20389;-62
2023/07/16 07:12:01;;;;;;;12.27;4.65;;;19.10;99.90;;;;;;6243278;22;20119;-62
2023/07/16 07:14:30;;;;;;;7.93;4.45;;;19.30;99.90;;;;;;6242137;23;20024;-62
2023/07/16 07:16:57;;;;;;;12.05;4.85;;;19.40;99.90;;;;;;6241406;23;20108;-62
2023/07/16 07:19:23;;;;;;;11.85;4.45;;;19.50;99.90;;;;;;6241636;23;20035;-62
2023/07/16 07:21:50;;;;;;;11.68;4.53;;;19.50;99.90;;;;;;6245498;23;20027;-62
2023/07/16 07:24:17;;;;;;;10.05;4.18;;;19.70;99.90;;;;;;6244156;23;20122;-62
2023/07/16 07:26:44;;;;;;;9.40;4.25;;;20.00;99.90;;;;;;6243906;23;20035;-61
2023/07/16 07:29:11;;;;;;;7.13;3.53;;;20.20;99.90;;;;;;6243758;23;20365;-62
2023/07/16 07:31:39;;;;;;;9.00;4.15;;;19.90;99.90;;;;;;6242646;23;20405;-61
2023/07/16 07:34:06;;;;;;;13.57;5.32;;;19.50;99.90;;;;;;6242748;23;20449;-62
2023/07/16 07:36:33;;;;;;;8.32;4.18;;;18.90;99.90;;;;;;6242444;23;20028;-62
2023/07/16 07:39:00;;;;;;;7.97;4.85;;;18.30;99.90;;;;;;6241683;23;20028;-63
2023/07/16 07:41:27;;;;;;;14.18;5.75;;;18.20;99.90;;;;;;6242324;23;20028;-62
2023/07/16 07:43:54;;;;;;;8.35;4.82;;;18.50;99.90;;;;;;6239005;23;20024;-62
2023/07/16 07:46:21;;;;;;;11.60;5.13;;;18.60;99.90;;;;;;6237282;23;20358;-61
2023/07/16 07:48:49;;;;;;;10.43;4.13;;;18.60;99.90;;;;;;6243401;23;20024;-62
2023/07/16 07:51:16;;;;;;;9.27;4.15;;;18.60;99.90;;;;;;6242589;23;20422;-62
2023/07/16 07:53:43;;;;;;;8.35;4.57;;;18.60;99.90;;;;;;6242542;23;20384;-62
2023/07/16 07:56:10;;;;;;;7.20;4.00;;;18.60;99.90;;;;;;6244046;22;20031;-62
2023/07/16 07:58:36;;;;;;;10.73;4.97;;;18.60;99.90;;;;;;6243540;23;20027;-63
2023/07/16 08:01:06;;;;;;;10.27;4.20;;;18.60;99.90;;;;;;6245646;23;20020;-61
2023/07/16 08:03:33;;;;;;;13.20;5.45;;;18.70;99.90;;;;;;6245668;23;20071;-62
2023/07/16 08:06:02;;;;;;;11.27;5.00;;;18.80;99.90;;;;;;6246113;23;20092;-62
2023/07/16 08:08:29;;;;;;;11.35;4.70;;;19.50;99.90;;;;;;6242869;23;20070;-62
2023/07/16 08:10:57;;;;;;;12.25;4.50;;;19.80;99.90;;;;;;6245969;23;20458;-62
2023/07/16 08:13:24;;;;;;;10.45;4.35;;;19.70;99.90;;;;;;6245965;23;20074;-62
2023/07/16 08:15:51;;;;;;;7.93;4.43;;;19.60;99.90;;;;;;6245280;22;20405;-62
2023/07/16 08:18:18;;;;;;;10.68;4.60;;;19.50;99.90;;;;;;6244293;23;20070;-62
2023/07/16 08:20:45;;;;;;;12.73;4.65;;;19.50;99.90;;;;;;6245388;23;20066;-61
2023/07/16 08:23:13;;;;;;;12.27;4.50;;;19.40;99.90;;;;;;6245529;23;20020;-62
2023/07/16 08:25:40;;;;;;;7.53;4.25;;;19.30;99.90;;;;;;6245249;23;20176;-62
2023/07/16 08:28:07;;;;;;;11.38;4.50;;;19.20;99.90;;;;;;6245918;23;20078;-63
2023/07/16 08:30:34;;;;;;;11.40;4.80;;;19.00;99.90;;;;;;6242723;23;20402;-61
2023/07/16 08:33:01;;;;;;;12.98;3.95;;;18.90;99.90;;;;;;6243929;23;20027;-62
2023/07/16 08:35:28;;;;;;;11.15;4.63;;;18.80;99.90;;;;;;6242552;23;20464;-63
2023/07/16 08:37:55;;;;;;;10.20;4.80;;;18.70;99.90;;;;;;6243420;23;20024;-62
2023/07/16 08:40:23;;;;;;;12.00;4.95;;;18.50;99.90;;;;;;6243132;23;20465;-63
2023/07/16 08:42:50;;;;;;;10.75;5.30;;;18.70;99.90;;;;;;6244743;23;20070;-63
2023/07/16 08:45:20;;;;;;;12.35;5.72;;;19.10;99.90;;;;;;6243545;23;20845;-63
2023/07/16 08:47:46;;;;;;;10.05;4.72;;;19.30;99.90;;;;;;6245913;23;20027;-63
2023/07/16 08:50:14;;;;;;;8.57;4.22;;;19.70;99.90;;;;;;6242270;23;20062;-63
2023/07/16 08:52:41;;;;;;;9.63;5.03;;;20.50;99.90;;;;;;6243968;23;20035;-63
2023/07/16 08:55:08;;;;;;;8.48;4.43;;;21.00;99.90;;;;;;6245248;23;20024;-62
2023/07/16 08:57:37;;;;;;;11.85;5.18;;;21.60;99.90;;;;;;6241925;23;20024;-62
2023/07/16 09:00:07;;;;;;;11.38;4.13;;;22.10;99.90;;;;;;6245166;22;20074;-62
2023/07/16 09:02:34;;;;;;;8.02;3.80;;;22.30;99.90;;;;;;6243472;23;20107;-62
2023/07/16 09:05:01;;;;;;;12.30;4.07;;;22.20;99.90;;;;;;6243005;23;20023;-63
2023/07/16 09:07:28;;;;;;;8.73;4.38;;;22.50;99.90;;;;;;6245532;23;20078;-63
2023/07/16 09:10:01;;;;;;;7.50;3.80;;;22.50;99.90;;;;;;6245220;23;20102;-63
2023/07/16 09:12:29;;;;;;;9.57;4.07;;;22.50;99.90;;;;;;6242490;23;20031;-62
2023/07/16 09:14:57;;;;;;;7.97;3.97;;;22.70;99.90;;;;;;6243307;23;20520;-62
2023/07/16 09:17:25;;;;;;;6.63;3.97;;;22.80;99.90;;;;;;6245137;23;20087;-62
2023/07/16 09:19:52;;;;;;;9.40;4.00;;;22.80;99.90;;;;;;6242885;23;20028;-62
2023/07/16 09:22:20;;;;;;;9.38;4.47;;;22.70;99.90;;;;;;6243259;23;20024;-63
2023/07/16 09:24:47;;;;;;;9.95;3.85;;;22.30;99.90;;;;;;6245105;23;20467;-62
2023/07/16 09:27:14;;;;;;;10.48;3.70;;;22.00;99.90;;;;;;6243236;23;20102;-63
2023/07/16 09:29:41;;;;;;;9.10;4.13;;;21.50;99.90;;;;;;6243471;23;20023;-62
2023/07/16 09:32:10;;;;;;;8.77;3.97;;;21.30;99.90;;;;;;6242337;23;20031;-63
2023/07/16 09:34:37;;;;;;;8.50;3.53;;;21.10;99.90;;;;;;6245086;23;20023;-62
2023/07/16 09:37:06;;;;;;;9.20;3.83;;;21.00;99.90;;;;;;6245084;23;20028;-62
2023/07/16 09:39:33;;;;;;;10.73;4.07;;;21.40;99.90;;;;;;6244430;23;20024;-62
2023/07/16 09:42:00;;;;;;;10.13;4.43;;;22.20;99.90;;;;;;6244523;23;20074;-62
2023/07/16 09:44:30;;;;;;;9.75;3.70;;;22.60;99.90;;;;;;6243059;23;20020;-63
2023/07/16 09:46:59;;;;;;;7.80;4.53;;;23.00;99.90;;;;;;6244554;23;20070;-63
2023/07/16 09:49:30;;;;;;;10.45;4.22;;;23.30;99.50;;;;;;6244894;23;20035;-63
2023/07/16 09:51:58;;;;;;;8.95;3.63;;;22.80;99.50;;;;;;6245093;23;20059;-63
2023/07/16 09:54:27;;;;;;;7.55;3.90;;;22.40;99.90;;;;;;6244041;23;20027;-62
2023/07/16 09:56:58;;;;;;;6.80;3.90;;;22.10;99.90;;;;;;6243586;23;20051;-63
2023/07/16 09:59:28;;;;;;;7.50;4.00;;;21.70;99.90;;;;;;6243747;23;20055;-63
2023/07/16 10:01:56;;;;;;;7.28;3.83;;;21.80;99.90;;;;;;6243997;23;20027;-63
2023/07/16 10:04:23;;;;;;;8.48;3.45;;;22.40;99.90;;;;;;6244164;23;20020;-63
2023/07/16 10:06:56;;;;;;;7.15;3.53;;;22.90;99.90;;;;;;6244484;23;20354;-62
2023/07/16 10:09:40;;;;;;;7.93;4.10;;;23.20;99.20;;;;;;6241584;23;20031;-63
2023/07/16 10:12:14;;;;;;;8.98;4.18;;;23.10;99.40;;;;;;6242625;23;20027;-63
2023/07/16 10:14:42;;;;;;;8.60;3.42;;;23.10;99.30;;;;;;6243278;23;20389;-63
2023/07/16 10:17:12;;;;;;;6.05;3.47;;;22.80;98.80;;;;;;6242032;23;20039;-62
2023/07/16 10:19:51;;;;;;;7.80;3.72;;;22.40;99.20;;;;;;6241901;23;20058;-63
2023/07/16 10:22:20;;;;;;;5.22;3.28;;;22.10;99.80;;;;;;6242623;23;20458;-62
2023/07/16 10:24:53;;;;;;;9.30;3.92;;;22.20;99.60;;;;;;6243404;23;20447;-63
2023/07/16 10:27:29;;;;;;;6.90;3.88;;;22.20;99.50;;;;;;6243822;23;20090;-63
2023/07/16 10:29:56;;;;;;;7.13;3.88;;;22.90;99.70;;;;;;6241565;23;20098;-63
2023/07/16 10:32:27;;;;;;;10.63;4.00;;;23.10;99.10;;;;;;6243866;23;20028;-62
2023/07/16 10:34:54;;;;;;;9.77;4.05;;;23.10;98.60;;;;;;6244338;23;20100;-63
2023/07/16 10:37:22;;;;;;;9.25;3.67;;;22.50;98.50;;;;;;6241473;23;20024;-62
2023/07/16 10:39:50;;;;;;;8.95;4.18;;;22.00;98.90;;;;;;6242275;23;20083;-63
2023/07/16 10:42:17;;;;;;;7.95;3.97;;;21.70;99.90;;;;;;6242623;23;20024;-63
2023/07/16 10:44:45;;;;;;;10.02;4.15;;;21.30;99.90;;;;;;6242951;23;20032;-63
2023/07/16 10:47:21;;;;;;;10.63;4.28;;;21.20;99.90;;;;;;6243934;23;20056;-62
2023/07/16 10:49:48;;;;;;;9.02;4.47;;;21.20;99.90;;;;;;6244656;23;20024;-63
2023/07/16 10:52:15;;;;;;;7.50;4.10;;;22.00;99.90;;;;;;6243506;23;20031;-63
2023/07/16 10:54:43;;;;;;;8.75;4.93;;;22.60;99.90;;;;;;6241980;23;20066;-63
2023/07/16 10:57:11;;;;;;;12.73;3.75;;;22.60;99.90;;;;;;6242641;23;20028;-63
2023/07/16 10:59:40;;;;;;;9.70;4.43;;;22.20;99.50;;;;;;6245232;23;20024;-63
2023/07/16 11:02:11;;;;;;;11.88;4.47;;;22.20;99.20;;;;;;6245283;23;20028;-62
2023/07/16 11:04:38;;;;;;;11.68;3.95;;;22.60;99.30;;;;;;6244559;23;20442;-64
2023/07/16 11:07:08;;;;;;;8.05;3.70;;;22.60;99.00;;;;;;6245248;22;20076;-63
2023/07/16 11:09:35;;;;;;;8.60;4.25;;;22.60;98.60;;;;;;6244959;23;20103;-62
2023/07/16 11:12:09;;;;;;;5.88;3.50;;;22.80;99.20;;;;;;6244620;23;20020;-62
2023/07/16 11:14:37;;;;;;;7.65;3.80;;;22.60;98.30;;;;;;6242898;23;20016;-62
2023/07/16 11:17:08;;;;;;;6.25;3.20;;;22.50;98.40;;;;;;6245091;23;20021;-62
2023/07/16 11:19:36;;;;;;;8.48;4.20;;;22.40;98.50;;;;;;6244022;23;20031;-63
2023/07/16 11:22:05;;;;;;;7.47;3.20;;;22.30;98.60;;;;;;6244873;23;20078;-62
2023/07/16 11:24:38;;;;;;;9.52;3.42;;;22.00;98.60;;;;;;6242549;23;20016;-63
2023/07/16 11:27:06;;;;;;;9.35;3.40;;;21.80;99.10;;;;;;6243235;23;20024;-62
2023/07/16 11:29:38;;;;;;;9.20;3.78;;;21.50;99.80;;;;;;6245011;23;20031;-62
2023/07/16 11:32:06;;;;;;;6.97;3.63;;;21.40;99.90;;;;;;6242693;23;20028;-63
2023/07/16 11:34:33;;;;;;;13.07;4.10;;;21.30;99.90;;;;;;6243733;23;20027;-62
2023/07/16 11:37:10;;;;;;;6.68;3.70;;;21.20;99.90;;;;;;6246745;23;20450;-63
2023/07/16 11:39:37;;;;;;;7.00;3.38;;;21.40;99.90;;;;;;6244588;23;20052;-62
2023/07/16 11:42:05;;;;;;;6.75;3.30;;;21.70;99.70;;;;;;6246869;23;20036;-63
2023/07/16 11:44:37;;;;;;;6.90;3.38;;;21.80;99.60;;;;;;6247040;23;20386;-63
2023/07/16 11:47:05;;;;;;;6.95;3.17;;;21.90;99.80;;;;;;6246345;23;20024;-63
2023/07/16 11:49:32;;;;;;;8.63;3.72;;;21.80;99.90;;;;;;6245261;23;20027;-63
2023/07/16 11:51:59;;;;;;;7.88;3.92;;;21.50;99.90;;;;;;6247323;23;20035;-63
2023/07/16 11:54:26;;;;;;;10.18;3.67;;;21.20;99.90;;;;;;6246114;23;20020;-63
2023/07/16 11:56:53;;;;;;;7.15;3.58;;;20.90;99.90;;;;;;6245091;23;20024;-63
2023/07/16 11:59:21;;;;;;;8.68;4.55;;;20.60;99.90;;;;;;6244893;23;20332;-63
2023/07/16 12:01:50;;;;;;;9.52;4.50;;;20.40;99.90;;;;;;6246331;23;20343;-62
2023/07/16 12:04:17;;;;;;;8.63;3.67;;;20.40;99.90;;;;;;6245121;23;20020;-62
2023/07/16 12:06:44;;;;;;;17.05;4.82;;;20.40;99.90;;;;;;6244172;23;20102;-63
2023/07/16 12:09:11;;;;;;;8.38;4.50;;;20.40;99.90;;;;;;6246867;23;20020;-62
2023/07/16 12:11:38;;;;;;;9.45;4.05;;;20.60;99.90;;;;;;6244984;23;20031;-62
2023/07/16 12:14:06;;;;;;;9.68;4.53;;;20.80;99.90;;;;;;6245886;23;20082;-63
2023/07/16 12:16:33;;;;;;;8.82;4.35;;;21.40;99.90;;;;;;6246728;23;20032;-62
2023/07/16 12:19:02;;;;;;;8.15;4.07;;;21.80;99.90;;;;;;6244614;23;20024;-63
2023/07/16 12:21:29;;;;;;;13.23;4.30;;;22.00;99.90;;;;;;6246139;22;20021;-62
2023/07/16 12:23:56;;;;;;;8.32;3.97;;;21.60;99.90;;;;;;6244562;23;20028;-62
2023/07/16 12:26:23;;;;;;;11.25;5.07;;;21.40;99.90;;;;;;6246649;23;20020;-63
2023/07/16 12:28:50;;;;;;;10.35;5.28;;;21.20;99.90;;;;;;6245684;23;20035;-62
2023/07/16 12:31:17;;;;;;;10.73;5.10;;;21.10;99.90;;;;;;6246899;22;20078;-63
2023/07/16 12:33:44;;;;;;;9.23;4.85;;;21.20;99.90;;;;;;6246006;23;20024;-63
2023/07/16 12:36:13;;;;;;;11.00;4.75;;;21.70;99.90;;;;;;6245642;23;20024;-63
2023/07/16 12:38:40;;;;;;;7.65;4.32;;;21.70;99.90;;;;;;6244468;23;20441;-63
2023/07/16 12:41:07;;;;;;;7.75;4.70;;;21.50;99.90;;;;;;6246557;23;20035;-63
2023/07/16 12:43:34;;;;;;;10.75;5.50;;;21.50;99.90;;;;;;6243755;23;20024;-62
2023/07/16 12:46:02;;;;;;;11.27;5.22;;;21.50;99.90;;;;;;6244350;23;20075;-62